Time;durP1;ratioP1;P1;durP2;ratioP2;P2;SDS_P1;SDS_P2;PMS_P1;PMS_P2;Temp;Humidity;BMP_temperature;BMP_pressure;BME280_temperature;BME280_humidity;BME280_pressure;Samples;Min_cycle;Max_cycle;Signal;HPM_P1;HPM_P2
2022/09/07 00:00:26;;;;;;;4.40;2.08;;;;;;;21.34;91.51;100822.19;4984856;28;20034;-90
2022/09/07 00:02:52;;;;;;;4.93;1.85;;;;;;;21.34;91.25;100822.19;5009159;28;20025;-88
2022/09/07 00:05:17;;;;;;;3.45;2.08;;;;;;;21.36;90.95;100817.50;5008120;28;20600;-89
2022/09/07 00:07:43;;;;;;;2.70;1.85;;;;;;;21.35;90.30;100813.22;4991432;28;20482;-90
2022/09/07 00:10:08;;;;;;;2.28;2.08;;;;;;;21.35;89.97;100802.63;5007755;28;20513;-89
2022/09/07 00:12:34;;;;;;;2.92;1.77;;;;;;;21.40;89.79;100796.69;4991517;28;20417;-88
2022/09/07 00:15:01;;;;;;;2.08;1.70;;;;;;;21.43;89.86;100788.34;5009292;28;20029;-89
2022/09/07 00:17:26;;;;;;;3.33;2.00;;;;;;;21.49;89.78;100787.50;5009134;28;20033;-88
2022/09/07 00:19:54;;;;;;;3.05;2.13;;;;;;;21.45;90.75;100792.41;4990089;28;20029;-90
2022/09/07 00:22:30;;;;;;;;;;;;;;;;;;;;;
2022/09/07 00:24:55;;;;;;;3.10;2.17;;;;;;;21.26;91.52;100787.19;5009266;28;20036;-88
2022/09/07 00:27:21;;;;;;;6.47;2.65;;;;;;;21.22;90.36;100778.00;4990917;28;20401;-89
2022/09/07 00:29:46;;;;;;;2.40;2.20;;;;;;;21.22;90.85;100764.75;4989263;28;20203;-89
2022/09/07 00:32:12;;;;;;;2.80;2.47;;;;;;;21.21;90.92;100732.16;5007252;28;21965;-88
2022/09/07 00:34:37;;;;;;;6.13;3.00;;;;;;;21.21;90.99;100713.59;5006082;28;20565;-89
2022/09/07 00:37:03;;;;;;;2.67;2.35;;;;;;;21.22;90.44;100709.13;5008675;28;20040;-89
2022/09/07 00:39:28;;;;;;;3.97;2.58;;;;;;;21.19;91.10;100708.47;4990789;28;20124;-88
2022/09/07 00:41:54;;;;;;;2.47;1.92;;;;;;;21.14;91.36;100716.22;5005795;28;20046;-88
2022/09/07 00:45:00;;;;;;;3.08;2.20;;;;;;;21.04;92.55;100725.63;5008738;28;20381;-89
2022/09/07 00:47:45;;;;;;;3.05;2.55;;;;;;;20.96;92.86;100728.47;4911982;29;20043;-89
2022/09/07 00:50:18;;;;;;;3.92;2.17;;;;;;;20.90;93.14;100745.19;4911259;29;20134;-89
2022/09/07 00:52:48;;;;;;;5.95;2.63;;;;;;;20.85;93.23;100737.84;4912408;29;20040;-87
2022/09/07 00:55:15;;;;;;;3.17;2.78;;;;;;;20.84;93.16;100736.22;4927877;29;20048;-88
2022/09/07 00:57:46;;;;;;;4.60;3.08;;;;;;;20.85;93.40;100743.97;4928597;29;20244;-89
2022/09/07 01:00:12;;;;;;;4.60;2.55;;;;;;;20.89;93.47;100760.25;4927060;29;20036;-87
2022/09/07 01:02:38;;;;;;;4.32;3.10;;;;;;;20.83;93.44;100769.03;4928056;29;20066;-88
2022/09/07 01:05:14;;;;;;;5.88;2.63;;;;;;;20.70;94.70;100772.50;4926539;29;20039;-88
2022/09/07 01:07:40;;;;;;;4.80;2.47;;;;;;;20.62;95.62;100780.66;4912016;29;20047;-89
2022/09/07 01:10:07;;;;;;;5.57;2.65;;;;;;;20.63;95.45;100787.56;4926450;29;20466;-88
2022/09/07 01:12:33;;;;;;;5.78;2.83;;;;;;;20.70;95.85;100782.28;4927915;29;20039;-89
2022/09/07 01:14:59;;;;;;;5.30;2.53;;;;;;;20.76;95.59;100784.13;4912186;29;20404;-88
2022/09/07 01:17:27;;;;;;;5.38;2.60;;;;;;;20.81;95.99;100779.81;4911962;29;20027;-88
2022/09/07 01:20:06;;;;;;;5.43;2.45;;;;;;;20.84;96.91;100768.81;4926952;29;20032;-89
2022/09/07 01:23:39;;;;;;;;;;;;;;;;;;;;;
2022/09/07 01:26:07;;;;;;;2.85;2.30;;;;;;;20.85;96.25;100757.22;4927798;29;20501;-88
2022/09/07 01:28:35;;;;;;;4.50;2.45;;;;;;;20.94;95.83;100751.72;4927596;29;20039;-89
2022/09/07 01:31:41;;;;;;;4.10;2.63;;;;;;;21.01;96.45;100755.16;4925361;29;20047;-90
2022/09/07 01:34:29;;;;;;;5.47;2.65;;;;;;;21.09;95.46;100755.78;4925192;29;20154;-89
2022/09/07 01:37:03;;;;;;;4.10;2.10;;;;;;;21.14;95.02;100745.38;4922478;29;20044;-89
2022/09/07 01:39:39;;;;;;;6.47;2.58;;;;;;;21.25;94.33;100745.78;4927425;29;20043;-89
2022/09/07 01:42:10;;;;;;;2.97;2.53;;;;;;;21.31;94.10;100737.00;4927173;29;20147;-89
2022/09/07 01:44:40;;;;;;;3.22;2.63;;;;;;;21.39;93.42;100737.59;4910458;29;20063;-89
2022/09/07 01:47:17;;;;;;;8.20;2.28;;;;;;;21.38;93.83;100730.66;4927470;29;20044;-88
2022/09/07 01:50:08;;;;;;;6.82;2.22;;;;;;;21.31;94.41;100729.84;4926794;29;20051;-89
2022/09/07 01:52:39;;;;;;;6.18;2.95;;;;;;;21.23;94.58;100727.44;4911696;29;20504;-88
2022/09/07 01:55:11;;;;;;;4.40;2.67;;;;;;;21.17;95.16;100722.94;4927660;29;20035;-89
2022/09/07 01:57:43;;;;;;;4.30;2.58;;;;;;;21.08;95.55;100721.53;4983863;28;20052;-89
2022/09/07 02:00:12;;;;;;;4.05;2.85;;;;;;;20.97;96.20;100725.63;5010607;28;20042;-89
2022/09/07 02:02:51;;;;;;;3.25;2.30;;;;;;;20.87;96.93;100720.75;4993899;28;20095;-89
2022/09/07 02:05:22;;;;;;;3.22;2.83;;;;;;;20.81;96.85;100724.22;4992741;28;20484;-89
2022/09/07 02:07:55;;;;;;;3.85;2.40;;;;;;;20.72;97.63;100728.13;4993850;28;20030;-88
2022/09/07 02:10:32;;;;;;;2.92;2.55;;;;;;;20.65;97.47;100724.66;5009816;28;20046;-88
2022/09/07 02:13:16;;;;;;;3.40;2.55;;;;;;;20.60;98.01;100721.78;4993887;28;20370;-89
2022/09/07 02:15:48;;;;;;;5.75;2.58;;;;;;;20.63;96.59;100715.28;4993535;28;20118;-87
2022/09/07 02:18:14;;;;;;;4.72;3.10;;;;;;;20.76;95.62;100716.09;5011252;28;20142;-88
2022/09/07 02:20:45;;;;;;;2.10;1.90;;;;;;;20.78;95.68;100715.88;4991885;28;20557;-89
2022/09/07 02:23:19;;;;;;;5.35;2.70;;;;;;;20.69;96.03;100715.28;4993503;28;20030;-90
2022/09/07 02:26:02;;;;;;;2.50;2.17;;;;;;;20.62;96.69;100711.81;4993485;28;20064;-88
2022/09/07 02:28:38;;;;;;;6.60;2.88;;;;;;;20.50;97.60;100711.59;4993298;28;20100;-88
2022/09/07 02:31:04;;;;;;;7.10;4.30;;;;;;;20.50;98.91;100713.44;4992018;28;20686;-88
2022/09/07 02:33:29;;;;;;;4.43;3.45;;;;;;;20.52;98.80;100716.69;4993242;28;20385;-89
2022/09/07 02:35:56;;;;;;;3.67;3.25;;;;;;;20.50;98.59;100729.31;4991895;28;20025;-88
2022/09/07 02:38:23;;;;;;;3.47;3.15;;;;;;;20.44;98.27;100723.00;5010994;28;20030;-88
2022/09/07 02:40:53;;;;;;;5.50;3.10;;;;;;;20.44;97.69;100722.19;4991271;28;20026;-89
2022/09/07 02:43:21;;;;;;;7.43;3.88;;;;;;;20.39;97.61;100721.97;4992699;28;20045;-88
2022/09/07 02:46:05;;;;;;;3.78;3.17;;;;;;;20.34;97.12;100724.38;5009673;28;20026;-89
2022/09/07 02:48:52;;;;;;;6.25;2.67;;;;;;;20.33;97.45;100722.75;4991431;28;20124;-89
2022/09/07 02:52:08;;;;;;;7.15;3.30;;;;;;;20.21;96.72;100726.00;5009493;28;20092;-89
2022/09/07 02:54:49;;;;;;;4.13;3.65;;;;;;;20.06;96.71;100722.72;4956822;28;20069;-90
2022/09/07 02:57:40;;;;;;;4.68;3.22;;;;;;;19.99;97.52;100719.25;4994333;28;20022;-90
2022/09/07 03:00:16;;;;;;;4.15;3.55;;;;;;;19.95;97.29;100718.00;5010371;28;20043;-89
2022/09/07 03:03:21;;;;;;;4.07;3.70;;;;;;;19.90;97.11;100712.50;4991572;28;20034;-89
2022/09/07 03:05:52;;;;;;;5.00;3.72;;;;;;;19.90;96.82;100712.50;4998544;28;20046;-89
2022/09/07 03:08:24;;;;;;;5.30;3.92;;;;;;;19.86;97.03;100714.72;4992726;28;20037;-90
2022/09/07 03:10:51;;;;;;;3.65;3.35;;;;;;;19.80;96.92;100718.19;4992040;28;20421;-89
2022/09/07 03:13:22;;;;;;;5.18;4.00;;;;;;;19.86;97.42;100721.84;4992469;28;20037;-89
2022/09/07 03:15:48;;;;;;;6.40;4.30;;;;;;;19.98;97.44;100722.91;5008555;28;20065;-88
2022/09/07 03:18:14;;;;;;;6.18;4.25;;;;;;;20.07;97.23;100721.72;4992371;28;20138;-90
2022/09/07 03:20:39;;;;;;;4.78;3.90;;;;;;;20.08;97.29;100718.06;5008783;28;20026;-89
2022/09/07 03:23:05;;;;;;;4.50;4.10;;;;;;;20.08;97.30;100722.53;5009884;28;20033;-89
2022/09/07 03:25:30;;;;;;;5.22;3.90;;;;;;;20.09;97.48;100727.63;5011048;28;20370;-89
2022/09/07 03:27:56;;;;;;;6.68;4.32;;;;;;;20.08;97.97;100728.63;4990707;28;20026;-89
2022/09/07 03:30:21;;;;;;;5.45;4.13;;;;;;;20.10;98.68;100729.25;4992065;28;20025;-90
2022/09/07 03:32:47;;;;;;;5.82;5.13;;;;;;;20.13;99.00;100736.78;4991956;28;20088;-89
2022/09/07 03:35:13;;;;;;;4.60;4.20;;;;;;;20.17;100.00;100732.72;5597756;22;20480;-68
2022/09/07 03:37:38;;;;;;;5.90;5.38;;;;;;;20.20;100.00;100729.69;5010371;28;20120;-68
2022/09/07 03:40:06;;;;;;;6.40;5.78;;;;;;;20.21;100.00;100735.78;5010122;28;20157;-69
2022/09/07 03:42:32;;;;;;;6.70;6.00;;;;;;;20.24;100.00;100731.91;5009967;28;20026;-68
2022/09/07 03:44:57;;;;;;;8.77;5.85;;;;;;;20.28;100.00;100730.50;5009844;28;20523;-69
2022/09/07 03:47:23;;;;;;;6.28;5.72;;;;;;;20.32;100.00;100731.72;5009746;28;20048;-68
2022/09/07 03:49:50;;;;;;;7.18;6.22;;;;;;;20.33;100.00;100733.34;5009455;28;20044;-69
2022/09/07 03:52:15;;;;;;;6.78;6.15;;;;;;;20.33;100.00;100730.69;5008138;28;20037;-68
2022/09/07 03:54:41;;;;;;;6.38;5.45;;;;;;;20.36;100.00;100733.75;5008260;28;20040;-68
2022/09/07 03:57:07;;;;;;;5.00;4.50;;;;;;;20.36;100.00;100733.75;5010049;28;20385;-68
2022/09/07 03:59:32;;;;;;;6.75;4.35;;;;;;;20.35;100.00;100726.81;5008080;28;20033;-68
2022/09/07 04:01:58;;;;;;;6.88;4.03;;;;;;;20.32;100.00;100721.16;5008400;28;20037;-68
2022/09/07 04:04:23;;;;;;;5.38;4.28;;;;;;;20.21;100.00;100726.00;5009159;28;20041;-68
2022/09/07 04:06:49;;;;;;;8.02;4.93;;;;;;;19.99;100.00;100723.72;5009507;28;20120;-68
2022/09/07 04:09:15;;;;;;;4.13;3.80;;;;;;;19.86;100.00;100727.94;5009412;28;20026;-68
2022/09/07 04:11:41;;;;;;;5.78;3.72;;;;;;;19.86;100.00;100725.31;5009852;28;20037;-68
2022/09/07 04:14:07;;;;;;;4.63;4.13;;;;;;;19.86;100.00;100722.66;5009402;28;20485;-68
2022/09/07 04:16:33;;;;;;;4.82;3.90;;;;;;;19.90;100.00;100712.50;5009285;28;20026;-68
2022/09/07 04:18:58;;;;;;;7.22;4.40;;;;;;;19.87;100.00;100713.72;5009204;28;20033;-68
2022/09/07 04:21:26;;;;;;;5.90;4.68;;;;;;;19.85;100.00;100707.81;5009087;28;20495;-68
2022/09/07 04:23:52;;;;;;;6.32;5.03;;;;;;;19.93;100.00;100711.28;5009446;28;20057;-68
2022/09/07 04:26:24;;;;;;;5.82;5.07;;;;;;;20.06;100.00;100717.44;5009414;28;20036;-68
2022/09/07 04:28:50;;;;;;;6.65;5.63;;;;;;;20.16;100.00;100717.88;5008925;28;20034;-68
2022/09/07 04:31:17;;;;;;;6.57;5.65;;;;;;;20.27;100.00;100726.22;5009097;28;20045;-68
2022/09/07 04:33:46;;;;;;;6.47;5.55;;;;;;;20.31;100.00;100717.69;5008547;28;20036;-69
2022/09/07 04:36:13;;;;;;;6.82;5.80;;;;;;;20.33;100.00;100720.09;5008633;28;20070;-68
2022/09/07 04:38:39;;;;;;;10.95;5.93;;;;;;;20.31;100.00;100724.81;5009130;28;20384;-69
2022/09/07 04:41:22;;;;;;;7.97;6.18;;;;;;;20.25;100.00;100730.91;5008818;28;20037;-69
2022/09/07 04:43:53;;;;;;;7.90;6.05;;;;;;;20.26;100.00;100729.88;5008910;28;20038;-68
2022/09/07 04:46:30;;;;;;;8.27;6.88;;;;;;;20.24;100.00;100740.69;5007183;28;20512;-68
2022/09/07 04:48:59;;;;;;;9.38;7.80;;;;;;;20.21;100.00;100744.53;5008880;28;20034;-68
2022/09/07 04:51:27;;;;;;;11.05;7.68;;;;;;;20.21;100.00;100741.88;5008720;28;20048;-68
2022/09/07 04:53:54;;;;;;;10.52;7.70;;;;;;;20.24;100.00;100751.25;5008576;28;20516;-68
2022/09/07 04:56:21;;;;;;;8.40;7.35;;;;;;;20.27;100.00;100747.41;5008541;28;20029;-68
2022/09/07 04:58:47;;;;;;;8.55;6.68;;;;;;;20.29;100.00;100745.38;5006865;28;20523;-69
2022/09/07 05:01:16;;;;;;;7.90;6.63;;;;;;;20.30;100.00;100744.34;5008817;28;20061;-68
2022/09/07 05:03:41;;;;;;;8.15;6.35;;;;;;;20.30;100.00;100750.47;5008505;28;20517;-68
2022/09/07 05:06:07;;;;;;;7.97;5.85;;;;;;;20.31;100.00;100753.91;5008696;28;20101;-68
2022/09/07 05:08:42;;;;;;;5.75;5.25;;;;;;;20.32;100.00;100766.13;5008781;28;20030;-68
2022/09/07 05:11:10;;;;;;;6.55;5.53;;;;;;;20.33;100.00;100765.91;5008221;28;20108;-69
2022/09/07 05:13:36;;;;;;;5.70;5.07;;;;;;;20.32;100.00;100769.56;5008324;28;20522;-68
2022/09/07 05:16:16;;;;;;;6.15;4.55;;;;;;;20.36;100.00;100768.16;5008520;28;20026;-68
2022/09/07 05:18:42;;;;;;;7.57;5.68;;;;;;;20.37;100.00;100776.91;5008628;28;20040;-72
2022/09/07 05:21:08;;;;;;;6.18;5.03;;;;;;;20.36;100.00;100781.38;5008425;28;20030;-72
2022/09/07 05:23:34;;;;;;;6.20;5.63;;;;;;;20.37;100.00;100783.00;5008327;28;20066;-70
2022/09/07 05:26:00;;;;;;;7.85;5.25;;;;;;;20.40;100.00;100787.94;5006809;28;20124;-75
2022/09/07 05:28:25;;;;;;;5.30;4.88;;;;;;;20.43;100.00;100792.00;5008241;28;20485;-71
2022/09/07 05:30:50;;;;;;;8.43;5.40;;;;;;;20.46;100.00;100803.00;5008273;28;20110;-69
2022/09/07 05:33:16;;;;;;;7.03;5.07;;;;;;;20.44;100.00;100825.41;5010978;28;20030;-70
2022/09/07 05:35:41;;;;;;;6.53;4.82;;;;;;;20.43;100.00;100835.16;5012215;28;20053;-70
2022/09/07 05:38:07;;;;;;;7.28;5.05;;;;;;;20.50;100.00;100851.06;5012205;28;20116;-69
2022/09/07 05:40:33;;;;;;;6.72;5.28;;;;;;;20.56;100.00;100847.63;5011969;28;20032;-69
2022/09/07 05:42:58;;;;;;;6.75;4.78;;;;;;;20.59;100.00;100846.41;5010581;28;20400;-68
2022/09/07 05:45:24;;;;;;;5.68;5.03;;;;;;;20.53;100.00;100840.09;5010530;28;20025;-68
2022/09/07 05:47:49;;;;;;;9.85;6.30;;;;;;;20.39;100.00;100852.47;5012029;28;20057;-68
2022/09/07 05:50:16;;;;;;;8.48;6.40;;;;;;;20.27;100.00;100851.41;5011976;28;20116;-67
2022/09/07 05:52:41;;;;;;;8.52;6.78;;;;;;;20.22;100.00;100856.47;5010191;28;20121;-67
2022/09/07 05:55:08;;;;;;;6.97;6.38;;;;;;;20.11;100.00;100847.25;5012122;28;20232;-68
2022/09/07 05:57:34;;;;;;;10.75;7.63;;;;;;;20.08;100.00;100836.25;5010439;28;20105;-64
2022/09/07 05:59:59;;;;;;;9.95;6.05;;;;;;;20.08;100.00;100825.69;5011973;28;20029;-64
2022/09/07 06:02:25;;;;;;;10.80;6.05;;;;;;;20.11;100.00;100818.16;5011671;28;20476;-64
2022/09/07 06:04:50;;;;;;;7.63;7.03;;;;;;;20.13;100.00;100818.78;5009653;28;20470;-65
2022/09/07 06:07:15;;;;;;;8.55;7.70;;;;;;;20.10;100.00;100813.06;5010005;28;20041;-64
2022/09/07 06:09:41;;;;;;;17.85;9.68;;;;;;;20.13;100.00;100812.66;5011766;28;20105;-63
2022/09/07 06:12:06;;;;;;;16.58;10.70;;;;;;;20.18;100.00;100804.97;5009034;28;20425;-64
2022/09/07 06:14:32;;;;;;;11.38;6.40;;;;;;;20.19;100.00;100791.53;5009428;28;20030;-63
2022/09/07 06:16:58;;;;;;;8.77;7.50;;;;;;;20.26;100.00;100767.75;5011515;28;20125;-64
2022/09/07 06:19:23;;;;;;;8.60;7.15;;;;;;;20.25;100.00;100752.06;5009532;28;20024;-65
2022/09/07 06:21:49;;;;;;;9.10;6.80;;;;;;;20.23;100.00;100754.91;5009175;28;20485;-65
2022/09/07 06:24:14;;;;;;;7.45;6.80;;;;;;;20.26;100.00;100749.22;5011285;28;20080;-65
2022/09/07 06:26:40;;;;;;;13.07;6.47;;;;;;;20.25;100.00;100760.00;5010602;28;20119;-65
2022/09/07 06:29:06;;;;;;;8.52;6.28;;;;;;;20.25;100.00;100746.78;5011401;28;20025;-65
2022/09/07 06:31:31;;;;;;;8.65;6.22;;;;;;;20.28;100.00;100747.19;5008775;28;20046;-65
2022/09/07 06:33:57;;;;;;;11.23;8.40;;;;;;;20.27;100.00;100742.09;5010350;28;20169;-65
2022/09/07 06:36:26;;;;;;;10.30;9.27;;;;;;;20.30;100.00;100754.94;5008464;28;20207;-65
2022/09/07 06:38:57;;;;;;;10.65;9.70;;;;;;;20.29;100.00;100755.94;5009608;28;20034;-65
2022/09/07 06:41:26;;;;;;;12.68;11.43;;;;;;;20.27;100.00;100755.34;5011312;28;20125;-65
2022/09/07 06:43:53;;;;;;;13.35;11.07;;;;;;;20.23;100.00;100759.41;5005559;28;20038;-65
2022/09/07 06:46:19;;;;;;;17.60;9.48;;;;;;;20.12;100.00;100764.25;5011284;28;20030;-66
2022/09/07 06:48:44;;;;;;;10.75;9.70;;;;;;;20.03;100.00;100759.34;5010778;28;20040;-65
2022/09/07 06:51:15;;;;;;;14.00;10.15;;;;;;;20.01;100.00;100759.53;5008485;28;20057;-65
2022/09/07 06:53:41;;;;;;;13.02;10.57;;;;;;;20.04;100.00;100761.78;5010676;28;20025;-65
2022/09/07 06:56:09;;;;;;;11.90;10.77;;;;;;;20.08;100.00;100770.13;5009171;28;20038;-65
2022/09/07 06:58:35;;;;;;;15.00;11.45;;;;;;;20.06;100.00;100780.09;5010686;28;20022;-65
2022/09/07 07:01:20;;;;;;;13.10;10.60;;;;;;;19.96;100.00;100783.09;5008454;28;20034;-65
2022/09/07 07:03:46;;;;;;;10.35;9.45;;;;;;;19.95;100.00;100778.84;5009307;28;20033;-65
2022/09/07 07:06:12;;;;;;;10.98;9.98;;;;;;;19.95;100.00;100773.53;5010437;28;20517;-65
2022/09/07 07:08:39;;;;;;;11.07;9.32;;;;;;;19.98;100.00;100781.09;5010692;28;20026;-65
2022/09/07 07:11:07;;;;;;;11.45;10.43;;;;;;;20.01;100.00;100778.03;5009295;28;20393;-65
2022/09/07 07:13:37;;;;;;;13.00;9.95;;;;;;;20.02;100.00;100779.66;5008993;28;20543;-66
2022/09/07 07:16:04;;;;;;;11.82;10.32;;;;;;;20.01;100.00;100782.50;5009950;28;20153;-65
2022/09/07 07:18:31;;;;;;;10.88;9.70;;;;;;;19.94;100.00;100784.31;5007667;28;20026;-65
2022/09/07 07:20:56;;;;;;;14.95;10.45;;;;;;;19.88;100.00;100783.28;5007125;28;20041;-65
2022/09/07 07:23:22;;;;;;;11.55;10.15;;;;;;;19.85;100.00;100786.31;5009253;28;20021;-65
2022/09/07 07:25:48;;;;;;;11.60;10.55;;;;;;;19.79;100.00;100787.13;5010067;28;20092;-65
2022/09/07 07:28:13;;;;;;;11.15;10.05;;;;;;;19.79;100.00;100785.31;5010456;28;20021;-65
2022/09/07 07:30:39;;;;;;;12.23;11.02;;;;;;;19.86;100.00;100786.13;5008839;28;20038;-65
2022/09/07 07:33:06;;;;;;;14.52;11.88;;;;;;;19.93;100.00;100795.91;5007564;28;20428;-64
2022/09/07 07:35:33;;;;;;;12.90;11.70;;;;;;;20.03;100.00;100791.88;5008412;28;20100;-65
2022/09/07 07:37:58;;;;;;;13.15;11.85;;;;;;;20.11;100.00;100790.91;5010241;28;20021;-65
2022/09/07 07:40:25;;;;;;;16.60;10.77;;;;;;;20.17;100.00;100790.91;5009808;28;20378;-65
2022/09/07 07:42:50;;;;;;;11.30;9.52;;;;;;;20.27;100.00;100785.25;5010104;28;20033;-65
2022/09/07 07:45:16;;;;;;;8.98;8.07;;;;;;;20.36;100.00;100794.59;5008560;28;20354;-65
2022/09/07 07:47:42;;;;;;;11.25;9.38;;;;;;;20.42;100.00;100793.03;5009646;28;20064;-65
2022/09/07 07:50:08;;;;;;;8.73;7.70;;;;;;;20.50;100.00;100792.84;5007344;28;20045;-64
2022/09/07 07:52:35;;;;;;;9.98;7.15;;;;;;;20.54;100.00;100794.88;5009445;28;20104;-64
2022/09/07 07:55:01;;;;;;;9.95;8.05;;;;;;;20.61;100.00;100800.19;5009080;28;20029;-64
2022/09/07 07:57:28;;;;;;;10.82;6.93;;;;;;;20.71;100.00;100797.97;5009737;28;20021;-64
2022/09/07 07:59:53;;;;;;;9.68;7.18;;;;;;;20.84;100.00;100792.66;5009135;28;20029;-65
2022/09/07 08:02:19;;;;;;;8.57;6.88;;;;;;;20.98;100.00;100793.47;5007385;28;20037;-64
2022/09/07 08:04:44;;;;;;;7.13;6.20;;;;;;;21.10;100.00;100788.38;5007320;28;20040;-64
2022/09/07 08:07:14;;;;;;;7.93;7.13;;;;;;;21.27;100.00;100792.25;5008076;28;20076;-64
2022/09/07 08:09:44;;;;;;;12.80;7.60;;;;;;;21.39;100.00;100803.03;5004812;28;20096;-65
2022/09/07 08:12:12;;;;;;;11.75;6.10;;;;;;;21.45;100.00;100807.50;5005617;28;20104;-66
2022/09/07 08:14:39;;;;;;;7.53;6.00;;;;;;;21.35;100.00;100797.31;5002345;28;20088;-64
2022/09/07 08:17:06;;;;;;;10.80;6.22;;;;;;;21.33;100.00;100803.84;5005576;28;20108;-64
2022/09/07 08:19:31;;;;;;;10.63;5.32;;;;;;;21.46;100.00;100801.19;5005921;28;20045;-64
2022/09/07 08:21:57;;;;;;;8.32;5.13;;;;;;;21.76;100.00;100810.25;5021076;28;20034;-64
2022/09/07 08:24:23;;;;;;;5.80;4.43;;;;;;;21.85;100.00;100798.41;5028987;28;20551;-64
2022/09/07 08:26:48;;;;;;;9.60;4.60;;;;;;;21.84;100.00;100804.72;5008603;28;20045;-64
2022/09/07 08:29:14;;;;;;;4.80;4.20;;;;;;;21.91;100.00;100801.22;5008023;28;20061;-65
2022/09/07 08:31:39;;;;;;;5.75;4.72;;;;;;;21.98;100.00;100797.53;5007704;28;20478;-64
2022/09/07 08:34:06;;;;;;;5.00;4.60;;;;;;;22.07;100.00;100800.78;5005018;28;20088;-64
2022/09/07 08:36:32;;;;;;;7.68;5.63;;;;;;;22.12;100.00;100801.78;5006920;28;20046;-64
2022/09/07 08:38:58;;;;;;;5.63;5.10;;;;;;;22.14;100.00;100810.34;5007757;28;20161;-64
2022/09/07 08:41:25;;;;;;;9.55;6.60;;;;;;;22.16;100.00;100816.25;5007484;28;20064;-64
2022/09/07 08:43:58;;;;;;;6.35;5.45;;;;;;;22.24;100.00;100817.00;5008498;28;20044;-64
2022/09/07 08:46:39;;;;;;;8.52;6.63;;;;;;;22.30;100.00;100830.25;5004525;28;20030;-64
2022/09/07 08:49:10;;;;;;;8.18;4.80;;;;;;;22.33;100.00;100832.47;5008996;28;20500;-64
2022/09/07 08:51:52;;;;;;;6.65;5.70;;;;;;;22.33;100.00;100823.72;5007288;28;20500;-64
2022/09/07 08:54:17;;;;;;;5.38;4.85;;;;;;;22.37;100.00;100832.88;5008834;28;20462;-64
2022/09/07 08:56:50;;;;;;;5.88;5.38;;;;;;;22.35;100.00;100835.75;5009053;28;20161;-64
2022/09/07 08:59:39;;;;;;;6.35;5.75;;;;;;;22.27;100.00;100832.50;5008664;28;20036;-64
2022/09/07 09:02:13;;;;;;;5.40;5.00;;;;;;;22.27;100.00;100835.97;5007807;28;20084;-64
2022/09/07 09:04:41;;;;;;;7.22;5.72;;;;;;;22.36;100.00;100831.25;5007535;28;20423;-64
2022/09/07 09:07:37;;;;;;;9.48;6.25;;;;;;;22.40;100.00;100835.09;5006356;28;20111;-64
2022/09/07 09:10:06;;;;;;;5.68;5.18;;;;;;;22.38;100.00;100831.84;5006966;28;20479;-64
2022/09/07 09:13:05;;;;;;;5.35;4.82;;;;;;;22.42;100.00;100830.41;5005919;28;20038;-64
2022/09/07 09:16:09;;;;;;;6.50;5.68;;;;;;;22.52;100.00;100836.06;5006971;28;20064;-64
2022/09/07 09:18:59;;;;;;;7.75;6.32;;;;;;;22.61;100.00;100848.06;4965464;28;20660;-64
2022/09/07 09:21:25;;;;;;;7.30;5.40;;;;;;;22.78;100.00;100851.84;4964840;28;20047;-64
2022/09/07 09:23:59;;;;;;;9.27;6.07;;;;;;;22.88;100.00;100846.06;4950248;28;20447;-63
2022/09/07 09:26:27;;;;;;;7.15;4.88;;;;;;;22.93;100.00;100850.72;4949089;28;20031;-63
2022/09/07 09:28:53;;;;;;;6.38;5.88;;;;;;;22.95;100.00;100852.13;4966558;28;20385;-63
2022/09/07 09:31:34;;;;;;;6.72;5.22;;;;;;;22.97;100.00;100852.72;4950307;28;20035;-63
2022/09/07 09:34:10;;;;;;;5.88;5.25;;;;;;;23.09;100.00;100847.53;4949487;28;20043;-63
2022/09/07 09:36:45;;;;;;;5.35;4.75;;;;;;;23.18;100.00;100846.19;4961943;28;20057;-63
2022/09/07 09:39:32;;;;;;;7.18;5.47;;;;;;;23.18;100.00;100846.19;4963902;28;20118;-64
2022/09/07 09:42:22;;;;;;;6.63;4.60;;;;;;;23.15;100.00;100846.66;4952681;28;20149;-64
2022/09/07 09:44:49;;;;;;;8.00;5.03;;;;;;;23.15;100.00;100841.34;4956745;28;20043;-63
2022/09/07 09:47:36;;;;;;;4.68;3.25;;;;;;;23.17;100.00;100848.03;4962339;28;20043;-64
2022/09/07 09:50:14;;;;;;;9.43;4.13;;;;;;;23.19;100.00;100842.50;4993452;28;20049;-64
2022/09/07 09:52:45;;;;;;;5.43;2.20;;;;;;;23.14;98.30;100839.72;5009711;28;20461;-64
2022/09/07 09:55:33;;;;;;;3.13;2.83;;;;;;;23.19;99.59;100839.84;5007104;28;20397;-64
2022/09/07 09:58:36;;;;;;;5.68;3.20;;;;;;;23.31;100.00;100835.47;5003110;28;20025;-64
2022/09/07 10:01:18;;;;;;;3.58;2.80;;;;;;;23.29;98.64;100831.38;5000073;28;20061;-64
2022/09/07 10:03:44;;;;;;;4.28;2.70;;;;;;;23.29;98.91;100831.38;5007057;28;20037;-63
2022/09/07 10:06:14;;;;;;;5.95;3.38;;;;;;;23.34;100.00;100835.00;5002451;28;20036;-64
2022/09/07 10:09:00;;;;;;;3.80;3.50;;;;;;;23.41;99.50;100827.78;5005203;28;20030;-64
2022/09/07 10:11:42;;;;;;;6.93;4.35;;;;;;;23.44;97.83;100824.69;4998751;28;20030;-64
2022/09/07 10:14:30;;;;;;;4.10;3.70;;;;;;;23.49;98.55;100822.19;4998152;28;20030;-64
2022/09/07 10:16:57;;;;;;;4.00;3.20;;;;;;;23.54;99.73;100812.78;5002694;28;20025;-65
2022/09/07 10:19:36;;;;;;;4.32;3.92;;;;;;;23.54;99.59;100810.13;5008271;28;20038;-64
2022/09/07 10:22:28;;;;;;;8.73;3.67;;;;;;;23.55;96.91;100809.88;5010715;28;21835;-64
2022/09/07 10:24:54;;;;;;;4.65;2.90;;;;;;;23.54;97.70;100800.28;5004184;28;20084;-65
2022/09/07 10:27:29;;;;;;;3.67;2.50;;;;;;;23.55;94.78;100803.75;5005475;28;20050;-66
2022/09/07 10:29:55;;;;;;;2.40;2.03;;;;;;;23.56;92.36;100800.88;5000585;28;20037;-66
2022/09/07 10:32:38;;;;;;;2.30;2.00;;;;;;;23.54;90.39;100800.28;5005886;28;20038;-64
2022/09/07 10:35:27;;;;;;;5.25;2.20;;;;;;;23.66;90.08;100795.03;5002871;28;20124;-65
2022/09/07 10:38:15;;;;;;;2.85;2.65;;;;;;;23.68;90.20;100787.63;5011127;28;20033;-65
2022/09/07 10:41:04;;;;;;;5.95;3.08;;;;;;;23.85;89.81;100791.31;5014499;28;20033;-64
2022/09/07 10:43:39;;;;;;;3.80;2.90;;;;;;;24.05;91.23;100783.91;5008288;28;20121;-65
2022/09/07 10:46:45;;;;;;;5.82;2.30;;;;;;;23.95;90.58;100777.47;5007528;28;20072;-64
2022/09/07 10:49:13;;;;;;;2.83;2.42;;;;;;;23.81;90.56;100772.31;5009755;28;20029;-64
2022/09/07 10:52:02;;;;;;;4.18;2.30;;;;;;;23.78;88.79;100771.97;5008269;28;20396;-63
2022/09/07 10:54:47;;;;;;;3.03;1.92;;;;;;;23.74;89.51;100776.09;5007802;28;20116;-64
2022/09/07 10:57:31;;;;;;;2.72;2.15;;;;;;;23.85;88.95;100767.38;5005573;28;20041;-66
2022/09/07 10:59:57;;;;;;;4.95;2.10;;;;;;;24.06;87.70;100764.22;5000637;28;20044;-66
2022/09/07 11:02:54;;;;;;;7.45;2.00;;;;;;;24.23;85.06;100752.94;5005291;28;20029;-66
2022/09/07 11:05:33;;;;;;;3.35;1.63;;;;;;;24.36;84.03;100747.44;5000963;28;20037;-64
2022/09/07 11:08:03;;;;;;;4.10;1.20;;;;;;;24.59;81.72;100746.66;4999692;28;20037;-64
2022/09/07 11:10:55;;;;;;;3.95;1.30;;;;;;;24.55;81.39;100743.66;5034757;28;20199;-65
2022/09/07 11:13:27;;;;;;;5.10;1.83;;;;;;;24.42;82.27;100741.22;5010843;28;20026;-66
2022/09/07 11:16:10;;;;;;;4.68;1.77;;;;;;;24.23;81.15;100742.28;5008256;28;20038;-65
2022/09/07 11:18:40;;;;;;;5.68;1.77;;;;;;;24.18;81.21;100737.63;5003761;28;20026;-64
2022/09/07 11:21:12;;;;;;;2.00;1.08;;;;;;;24.33;80.15;100737.25;5001985;28;20331;-64
2022/09/07 11:23:52;;;;;;;5.03;1.27;;;;;;;24.36;79.72;100731.47;5005843;28;20033;-64
2022/09/07 11:26:41;;;;;;;2.03;1.30;;;;;;;24.23;81.73;100732.44;5009110;28;20419;-65
2022/09/07 11:29:29;;;;;;;5.38;1.10;;;;;;;24.07;80.04;100730.44;5004774;28;20148;-66
2022/09/07 11:32:00;;;;;;;4.45;1.50;;;;;;;24.02;82.24;100732.97;5007859;28;20040;-65
2022/09/07 11:34:34;;;;;;;3.83;1.63;;;;;;;23.97;81.98;100725.66;5006813;28;20538;-64
2022/09/07 11:37:12;;;;;;;2.33;1.60;;;;;;;24.01;82.78;100726.84;5002742;28;20161;-64
2022/09/07 11:39:43;;;;;;;6.75;2.35;;;;;;;24.07;82.98;100730.44;5007376;28;20033;-63
2022/09/07 11:42:32;;;;;;;4.00;1.98;;;;;;;24.03;83.25;100730.09;5004008;28;20216;-64